createdAt,value
2018-12-23T00:00:53.413Z,6.08
2018-12-23T00:03:20.500Z,6.08
2018-12-23T00:05:47.781Z,6.07
2018-12-23T00:08:14.897Z,6.10
2018-12-23T00:10:41.918Z,6.12
2018-12-23T00:13:08.981Z,6.14
2018-12-23T00:15:36.027Z,6.12
2018-12-23T00:18:03.066Z,6.16
2018-12-23T00:20:30.113Z,6.17
2018-12-23T00:22:57.159Z,6.18
2018-12-23T00:25:24.193Z,6.18
2018-12-23T00:27:51.248Z,6.19
2018-12-23T00:30:18.270Z,6.21
2018-12-23T00:32:45.494Z,6.14
2018-12-23T00:35:20.038Z,6.20
2018-12-23T00:37:41.573Z,6.23
2018-12-23T00:40:08.609Z,6.28
2018-12-23T00:42:35.627Z,6.27
2018-12-23T00:45:03.111Z,6.32
2018-12-23T00:47:30.541Z,6.26
2018-12-23T00:49:58.437Z,6.27
2018-12-23T00:52:25.481Z,6.29
2018-12-23T00:54:52.497Z,6.30
2018-12-23T00:57:19.643Z,6.29
2018-12-23T00:59:46.707Z,6.30
2018-12-23T01:02:13.859Z,6.26
2018-12-23T01:04:41.262Z,6.30
2018-12-23T01:07:08.402Z,6.31
2018-12-23T01:09:36.284Z,6.33
2018-12-23T01:12:03.695Z,6.36
2018-12-23T01:14:30.712Z,6.35
2018-12-23T01:16:57.776Z,6.36
2018-12-23T01:19:25.017Z,6.38
2018-12-23T01:21:52.202Z,6.41
2018-12-23T01:24:19.241Z,6.40
2018-12-23T01:26:46.382Z,6.39
2018-12-23T01:29:20.642Z,6.40
2018-12-23T01:31:47.759Z,6.43
2018-12-23T01:34:14.796Z,6.43
2018-12-23T01:36:42.190Z,6.44
2018-12-23T01:39:09.209Z,6.47
2018-12-23T01:41:36.244Z,6.48
2018-12-23T01:44:03.393Z,6.52
2018-12-23T01:46:30.449Z,6.54
2018-12-23T01:48:57.482Z,6.54
2018-12-23T01:51:24.485Z,6.54
2018-12-23T01:53:51.634Z,6.57
2018-12-23T01:56:18.884Z,6.54
2018-12-23T01:58:45.897Z,6.58
2018-12-23T02:01:12.917Z,6.60
2018-12-23T02:03:40.227Z,6.65
2018-12-23T02:06:07.286Z,6.64
2018-12-23T02:08:34.447Z,6.63
2018-12-23T02:11:01.610Z,6.63
2018-12-23T02:13:28.637Z,6.62
2018-12-23T02:15:55.653Z,6.63
2018-12-23T02:18:22.707Z,6.60
2018-12-23T02:20:49.725Z,6.63
2018-12-23T02:23:16.738Z,6.64
2018-12-23T02:25:43.750Z,6.63
2018-12-23T02:28:10.813Z,6.66
2018-12-23T02:30:44.881Z,6.62
2018-12-23T02:33:12.013Z,6.63
2018-12-23T02:35:39.158Z,6.62
2018-12-23T02:38:06.183Z,6.63
2018-12-23T02:40:33.270Z,6.62
2018-12-23T02:43:00.290Z,6.63
2018-12-23T02:45:28.532Z,6.61
2018-12-23T02:47:55.537Z,6.64
2018-12-23T02:50:22.587Z,6.61
2018-12-23T02:52:49.635Z,6.65
2018-12-23T02:55:16.756Z,6.64
2018-12-23T03:00:56.975Z,6.71
2018-12-23T03:03:25.234Z,6.70
2018-12-23T03:05:52.992Z,6.69
2018-12-23T03:08:20.475Z,6.71
2018-12-23T03:10:48.218Z,6.71
2018-12-23T03:13:18.772Z,6.70
2018-12-23T03:15:46.701Z,6.73
2018-12-23T03:18:14.473Z,6.79
2018-12-23T03:20:41.909Z,6.78
2018-12-23T03:23:10.092Z,6.82
2018-12-23T03:25:37.863Z,6.81
2018-12-23T03:28:05.382Z,6.80
2018-12-23T03:30:32.683Z,6.81
2018-12-23T03:33:01.118Z,6.81
2018-12-23T03:35:28.695Z,6.82
2018-12-23T03:37:56.982Z,6.85
2018-12-23T03:40:24.383Z,6.84
2018-12-23T03:42:52.308Z,6.83
2018-12-23T03:45:19.674Z,6.86
2018-12-23T03:47:46.809Z,6.84
2018-12-23T03:50:14.512Z,6.83
2018-12-23T03:52:42.255Z,6.87
2018-12-23T03:55:11.227Z,6.84
2018-12-23T03:57:38.912Z,6.85
2018-12-23T04:00:06.673Z,6.86
2018-12-23T04:02:34.129Z,6.82
2018-12-23T04:05:05.875Z,6.81
2018-12-23T04:07:33.340Z,6.85
2018-12-23T04:10:00.741Z,6.86
2018-12-23T04:12:28.967Z,6.82
2018-12-23T04:14:56.649Z,6.86
2018-12-23T04:17:24.635Z,6.90
2018-12-23T04:19:52.080Z,6.91
2018-12-23T04:22:19.200Z,6.92
2018-12-23T04:24:46.966Z,6.93
2018-12-23T04:27:14.822Z,6.94
2018-12-23T04:29:42.598Z,6.92
2018-12-23T04:32:09.740Z,6.88
2018-12-23T04:34:37.699Z,6.88
2018-12-23T04:37:05.793Z,6.90
2018-12-23T04:39:33.451Z,6.89
2018-12-23T04:42:01.109Z,6.90
2018-12-23T04:44:29.059Z,6.90
2018-12-23T04:46:56.437Z,6.90
2018-12-23T04:49:23.637Z,6.92
2018-12-23T04:51:51.786Z,6.99
2018-12-23T04:54:19.488Z,6.97
2018-12-23T04:56:47.782Z,6.97
2018-12-23T04:59:16.072Z,6.99
2018-12-23T05:01:43.920Z,6.99
2018-12-23T05:04:12.013Z,6.96
2018-12-23T05:06:43.534Z,7.18
2018-12-23T05:09:09.685Z,7.08
2018-12-23T05:11:37.683Z,7.11
2018-12-23T05:14:05.421Z,7.10
2018-12-23T05:16:33.164Z,7.07
2018-12-23T05:19:01.343Z,7.07
2018-12-23T05:21:29.209Z,7.12
2018-12-23T05:23:56.974Z,7.08
2018-12-23T05:26:24.632Z,7.08
2018-12-23T05:28:51.745Z,7.14
2018-12-23T05:31:19.584Z,7.07
2018-12-23T05:33:47.365Z,7.03
2018-12-23T05:36:15.575Z,7.03
2018-12-23T05:38:42.708Z,7.00
2018-12-23T05:41:10.551Z,7.01
2018-12-23T05:43:37.972Z,7.09
2018-12-23T05:46:05.145Z,6.95
2018-12-23T05:48:32.582Z,7.02
2018-12-23T05:51:00.991Z,6.98
2018-12-23T05:53:29.118Z,6.98
2018-12-23T05:55:55.334Z,6.95
2018-12-23T05:58:23.109Z,6.90
2018-12-23T06:00:51.273Z,6.81
2018-12-23T06:03:18.422Z,6.73
2018-12-23T06:05:45.828Z,6.66
2018-12-23T06:08:13.899Z,6.48
2018-12-23T06:10:41.423Z,6.42
2018-12-23T06:13:08.887Z,6.51
2018-12-23T06:15:36.321Z,6.49
2018-12-23T06:18:03.594Z,6.49
2018-12-23T06:20:32.004Z,6.53
2018-12-23T06:23:00.640Z,6.55
2018-12-23T06:25:27.787Z,6.57
2018-12-23T06:27:55.268Z,6.58
2018-12-23T06:30:22.736Z,6.64
2018-12-23T06:32:50.095Z,6.66
2018-12-23T06:35:18.024Z,6.67
2018-12-23T06:37:45.762Z,6.67
2018-12-23T06:40:14.307Z,6.68
2018-12-23T06:42:42.594Z,6.69
2018-12-23T06:45:09.735Z,6.71
2018-12-23T06:47:36.862Z,6.73
2018-12-23T06:50:04.605Z,6.74
2018-12-23T06:52:32.668Z,6.76
2018-12-23T06:55:01.478Z,6.69
2018-12-23T06:57:29.095Z,6.72
2018-12-23T06:59:57.408Z,6.63
2018-12-23T07:02:24.711Z,6.61
2018-12-23T07:04:53.050Z,6.57
2018-12-23T07:07:20.529Z,6.62
2018-12-23T07:09:48.294Z,6.57
2018-12-23T07:12:16.442Z,6.60
2018-12-23T07:14:43.890Z,6.58
2018-12-23T07:17:11.469Z,6.60
2018-12-23T07:19:39.718Z,6.54
2018-12-23T07:22:06.827Z,6.54
2018-12-23T07:24:34.466Z,6.51
2018-12-23T07:27:02.315Z,6.50
2018-12-23T07:29:29.737Z,6.49
2018-12-23T07:31:56.850Z,6.49
2018-12-23T07:34:24.587Z,6.50
2018-12-23T07:36:52.640Z,6.48
2018-12-23T07:39:20.064Z,6.45
2018-12-23T07:41:47.767Z,6.48
2018-12-23T07:44:15.419Z,6.49
2018-12-23T07:46:42.540Z,6.48
2018-12-23T07:49:10.116Z,6.50
2018-12-23T07:51:37.546Z,6.60
2018-12-23T07:54:04.928Z,6.59
2018-12-23T07:56:32.835Z,6.62
2018-12-23T07:59:01.090Z,6.57
2018-12-23T08:01:28.221Z,6.68
2018-12-23T08:03:55.597Z,6.67
2018-12-23T08:06:23.024Z,6.67
2018-12-23T08:08:50.499Z,6.64
2018-12-23T08:11:18.358Z,6.63
2018-12-23T08:13:46.855Z,6.65
2018-12-23T08:16:14.682Z,6.73
2018-12-23T08:18:42.248Z,6.68
2018-12-23T08:21:09.384Z,6.68
2018-12-23T08:23:37.694Z,6.73
2018-12-23T08:26:04.962Z,6.71
2018-12-23T08:28:33.473Z,6.71
2018-12-23T08:31:01.800Z,6.77
2018-12-23T08:33:30.082Z,6.76
2018-12-23T08:35:57.959Z,6.77
2018-12-23T08:38:25.363Z,6.82
2018-12-23T08:40:53.152Z,6.80
2018-12-23T08:43:20.636Z,6.82
2018-12-23T08:45:47.817Z,6.82
2018-12-23T08:48:15.895Z,6.80
2018-12-23T08:50:43.606Z,6.88
2018-12-23T08:53:11.097Z,6.84
2018-12-23T08:55:39.351Z,6.81
2018-12-23T08:58:07.100Z,6.87
2018-12-23T09:00:34.331Z,6.89
2018-12-23T09:03:02.377Z,6.87
2018-12-23T09:05:29.540Z,6.83
2018-12-23T09:07:57.643Z,6.86
2018-12-23T09:10:25.206Z,6.85
2018-12-23T09:12:52.451Z,6.87
2018-12-23T09:15:20.135Z,6.94
2018-12-23T09:17:47.276Z,6.89
2018-12-23T09:20:15.025Z,6.88
2018-12-23T09:22:43.047Z,6.91
2018-12-23T09:25:11.526Z,6.88
2018-12-23T09:27:39.943Z,6.92
2018-12-23T09:30:07.498Z,6.87
2018-12-23T09:32:34.700Z,6.93
2018-12-23T09:35:03.131Z,6.91
2018-12-23T09:37:30.255Z,6.94
2018-12-23T09:39:57.648Z,6.91
2018-12-23T09:42:24.772Z,6.90
2018-12-23T09:44:52.296Z,6.97
2018-12-23T09:47:19.403Z,6.94
2018-12-23T09:49:47.178Z,6.96
2018-12-23T09:52:15.293Z,6.97
2018-12-23T09:54:42.658Z,6.97
2018-12-23T09:57:10.555Z,6.98
2018-12-23T09:59:37.812Z,6.87
2018-12-23T10:02:05.667Z,6.86
2018-12-23T10:04:32.803Z,6.87
2018-12-23T10:06:59.971Z,6.83
2018-12-23T10:09:27.690Z,6.84
2018-12-23T10:11:56.352Z,6.85
2018-12-23T10:14:24.113Z,6.79
2018-12-23T10:16:51.968Z,6.90
2018-12-23T10:19:19.139Z,6.91
2018-12-23T10:21:47.074Z,6.86
2018-12-23T10:24:18.011Z,6.86
2018-12-23T10:26:48.242Z,6.93
2018-12-23T10:29:15.633Z,6.90
2018-12-23T10:31:44.185Z,6.85
2018-12-23T10:34:13.070Z,6.84
2018-12-23T10:36:41.653Z,6.88
2018-12-23T10:39:09.426Z,6.86
2018-12-23T10:41:36.865Z,6.85
2018-12-23T10:44:04.706Z,6.94
2018-12-23T10:46:32.617Z,6.87
2018-12-23T10:49:01.254Z,6.89
2018-12-23T10:51:29.375Z,6.94
2018-12-23T10:53:57.658Z,6.97
2018-12-23T10:56:25.509Z,6.90
2018-12-23T10:58:54.168Z,7.00
2018-12-23T11:01:21.531Z,6.98
2018-12-23T11:03:49.599Z,6.99
2018-12-23T11:06:16.914Z,7.00
2018-12-23T11:08:44.115Z,6.96
2018-12-23T11:11:11.721Z,6.98
2018-12-23T11:13:39.151Z,6.96
2018-12-23T11:16:06.261Z,6.95
2018-12-23T11:18:34.562Z,7.01
2018-12-23T11:21:02.406Z,6.98
2018-12-23T11:23:30.638Z,7.00
2018-12-23T11:25:57.950Z,7.00
2018-12-23T11:28:25.964Z,7.02
2018-12-23T11:30:53.667Z,7.09
2018-12-23T11:33:20.944Z,6.99
2018-12-23T11:35:49.228Z,7.07
2018-12-23T11:38:17.304Z,6.99
2018-12-23T11:40:44.963Z,6.97
2018-12-23T11:43:13.260Z,6.97
2018-12-23T11:45:40.896Z,7.04
2018-12-23T11:48:08.558Z,6.98
2018-12-23T11:50:36.145Z,7.01
2018-12-23T11:53:03.872Z,6.96
2018-12-23T11:55:31.012Z,7.01
2018-12-23T11:57:59.345Z,7.02
2018-12-23T12:00:26.899Z,7.06
2018-12-23T12:02:54.104Z,7.06
2018-12-23T12:05:21.603Z,7.05
2018-12-23T12:07:49.754Z,7.04
2018-12-23T12:10:16.893Z,7.07
2018-12-23T12:12:44.730Z,7.02
2018-12-23T12:15:12.151Z,6.99
2018-12-23T12:17:39.270Z,7.01
2018-12-23T12:20:06.902Z,7.01
2018-12-23T12:22:34.039Z,7.03
2018-12-23T12:25:01.850Z,7.05
2018-12-23T12:27:29.457Z,7.01
2018-12-23T12:29:57.718Z,7.00
2018-12-23T12:32:25.200Z,7.08
2018-12-23T12:34:53.079Z,7.06
2018-12-23T12:37:21.574Z,7.09
2018-12-23T12:39:49.554Z,7.06
2018-12-23T12:42:17.006Z,7.05
2018-12-23T12:44:45.608Z,7.06
2018-12-23T12:47:12.998Z,7.14
2018-12-23T12:49:40.409Z,7.08
2018-12-23T12:52:08.353Z,7.13
2018-12-23T12:54:35.723Z,7.12
2018-12-23T12:57:03.387Z,7.06
2018-12-23T12:59:31.555Z,7.03
2018-12-23T13:01:59.189Z,7.02
2018-12-23T13:04:27.386Z,7.03
2018-12-23T13:06:55.347Z,6.99
2018-12-23T13:09:23.331Z,7.05
2018-12-23T13:11:50.474Z,7.03
2018-12-23T13:14:17.975Z,6.98
2018-12-23T13:16:45.490Z,7.00
2018-12-23T13:19:12.967Z,6.97
2018-12-23T13:21:40.531Z,6.99
2018-12-23T13:24:08.469Z,6.97
2018-12-23T13:26:35.826Z,6.93
2018-12-23T13:29:03.786Z,6.94
2018-12-23T13:31:30.909Z,6.95
2018-12-23T13:33:59.155Z,6.96
2018-12-23T13:36:27.306Z,6.96
2018-12-23T13:38:55.121Z,6.96
2018-12-23T13:41:53.959Z,6.91
2018-12-23T13:44:50.371Z,6.94
2018-12-23T13:48:07.850Z,6.92
2018-12-23T13:51:08.045Z,6.90
2018-12-23T13:53:58.359Z,6.89
2018-12-23T13:57:12.919Z,6.90
2018-12-23T14:00:43.399Z,6.93
2018-12-23T14:03:32.328Z,6.88
2018-12-23T14:06:52.937Z,6.91
2018-12-23T14:09:51.244Z,6.91
2018-12-23T14:12:18.468Z,6.93
2018-12-23T14:14:45.889Z,7.22
2018-12-23T14:17:13.647Z,7.25
2018-12-23T14:19:41.027Z,7.52
2018-12-23T14:22:12.443Z,7.28
2018-12-23T14:24:41.423Z,7.20
2018-12-23T14:27:09.007Z,7.15
2018-12-23T14:29:38.927Z,7.56
2018-12-23T14:32:06.363Z,7.55
2018-12-23T14:34:33.830Z,7.49
2018-12-23T14:37:01.048Z,7.09
2018-12-23T14:39:29.283Z,8.00
2018-12-23T14:41:57.538Z,7.72
2018-12-23T14:44:27.672Z,7.90
2018-12-23T14:46:55.345Z,7.33
2018-12-23T14:49:22.729Z,7.73
2018-12-23T14:51:50.227Z,7.51
2018-12-23T14:54:17.667Z,7.59
2018-12-23T14:56:45.344Z,7.15
2018-12-23T14:59:12.505Z,7.07
2018-12-23T15:01:39.994Z,7.00
2018-12-23T15:04:07.113Z,6.97
2018-12-23T15:06:34.241Z,6.90
2018-12-23T15:09:04.215Z,6.90
2018-12-23T15:11:31.924Z,6.90
2018-12-23T15:13:59.061Z,6.93
2018-12-23T15:16:26.210Z,6.91
2018-12-23T15:18:54.907Z,6.91
2018-12-23T15:21:22.048Z,6.91
2018-12-23T15:23:49.459Z,6.86
2018-12-23T15:26:17.200Z,6.90
2018-12-23T15:28:44.367Z,6.87
2018-12-23T15:31:12.196Z,6.89
2018-12-23T15:33:39.324Z,6.86
2018-12-23T15:36:06.863Z,6.88
2018-12-23T15:38:33.990Z,6.87
2018-12-23T15:41:01.786Z,6.87
2018-12-23T15:43:29.870Z,6.83
2018-12-23T15:45:58.065Z,6.84
2018-12-23T15:48:26.036Z,6.83
2018-12-23T15:50:53.185Z,6.84
2018-12-23T15:53:21.452Z,6.88
2018-12-23T15:55:49.052Z,6.86
2018-12-23T15:58:16.508Z,6.86
2018-12-23T16:00:43.689Z,6.88
2018-12-23T16:03:11.681Z,6.90
2018-12-23T16:05:39.446Z,6.88
2018-12-23T16:08:07.532Z,6.91
2018-12-23T16:10:35.601Z,6.91
2018-12-23T16:13:03.744Z,6.86
2018-12-23T16:15:31.128Z,6.82
2018-12-23T16:17:58.852Z,6.88
2018-12-23T16:20:26.534Z,6.89
2018-12-23T16:22:54.326Z,6.90
2018-12-23T16:25:21.745Z,6.88
2018-12-23T16:27:49.982Z,6.94
2018-12-23T16:30:17.439Z,6.96
2018-12-23T16:32:46.397Z,6.97
2018-12-23T16:35:14.151Z,6.97
2018-12-23T16:37:41.922Z,6.96
2018-12-23T16:40:11.248Z,6.88
2018-12-23T16:42:38.740Z,6.82
2018-12-23T16:45:06.289Z,6.86
2018-12-23T16:47:41.187Z,6.87
2018-12-23T16:50:08.628Z,6.85
2018-12-23T16:52:36.275Z,6.87
2018-12-23T16:55:04.462Z,6.85
2018-12-23T16:57:31.987Z,6.89
2018-12-23T16:59:59.695Z,6.90
2018-12-23T17:02:28.163Z,6.96
2018-12-23T17:04:56.226Z,6.94
2018-12-23T17:07:23.974Z,7.35
2018-12-23T17:09:51.105Z,7.20
2018-12-23T17:12:18.592Z,7.29
2018-12-23T17:14:46.871Z,7.23
2018-12-23T17:17:15.056Z,7.03
2018-12-23T17:19:42.839Z,7.18
2018-12-23T17:22:10.352Z,7.17
2018-12-23T17:24:37.732Z,7.36
2018-12-23T17:27:05.889Z,6.99
2018-12-23T17:29:33.002Z,6.82
2018-12-23T17:32:00.503Z,6.66
2018-12-23T17:34:27.660Z,6.71
2018-12-23T17:36:54.808Z,6.85
2018-12-23T17:39:22.586Z,6.68
2018-12-23T17:41:50.105Z,6.56
2018-12-23T17:44:17.772Z,6.55
2018-12-23T17:46:44.916Z,6.70
2018-12-23T17:49:12.071Z,6.55
2018-12-23T17:51:39.557Z,6.53
2018-12-23T17:54:07.279Z,6.49
2018-12-23T17:56:35.019Z,6.34
2018-12-23T17:59:02.909Z,6.33
2018-12-23T18:01:33.342Z,6.30
2018-12-23T18:04:02.369Z,6.29
2018-12-23T18:06:30.434Z,6.25
2018-12-23T18:08:59.006Z,6.32
2018-12-23T18:11:26.514Z,6.23
2018-12-23T18:13:54.857Z,6.28
2018-12-23T18:16:24.292Z,6.22
2018-12-23T18:18:52.465Z,6.21
2018-12-23T18:21:20.789Z,6.24
2018-12-23T18:23:48.763Z,6.32
2018-12-23T18:26:16.059Z,6.32
2018-12-23T18:28:44.930Z,6.21
2018-12-23T18:31:13.095Z,6.15
2018-12-23T18:33:43.142Z,6.14
2018-12-23T18:36:11.345Z,6.24
2018-12-23T18:38:38.872Z,6.23
2018-12-23T18:41:07.258Z,6.28
2018-12-23T18:43:34.758Z,6.27
2018-12-23T18:46:02.825Z,6.22
2018-12-23T18:48:30.591Z,6.18
2018-12-23T18:50:58.034Z,6.33
2018-12-23T18:53:25.498Z,6.26
2018-12-23T18:55:53.287Z,6.28
2018-12-23T18:58:20.699Z,6.32
2018-12-23T19:00:52.922Z,6.33
2018-12-23T19:03:20.754Z,6.28
2018-12-23T19:05:48.445Z,6.31
2018-12-23T19:08:20.031Z,6.38
2018-12-23T19:11:12.781Z,6.34
2018-12-23T19:14:09.693Z,6.30
2018-12-23T19:17:11.566Z,6.13
2018-12-23T19:20:25.826Z,6.16
2018-12-23T19:23:44.366Z,6.21
2018-12-23T19:26:40.988Z,6.22
2018-12-23T19:29:45.827Z,6.16
2018-12-23T19:32:52.494Z,6.08
2018-12-23T19:35:58.066Z,6.02
2018-12-23T19:38:54.704Z,6.13
2018-12-23T19:42:15.739Z,6.13
2018-12-23T19:45:19.907Z,6.16
2018-12-23T19:48:25.968Z,6.52
2018-12-23T19:51:50.871Z,6.22
2018-12-23T19:54:42.211Z,6.02
2018-12-23T19:57:36.275Z,6.22
2018-12-23T20:00:54.523Z,6.31
2018-12-23T20:03:58.789Z,6.32
2018-12-23T20:07:29.508Z,6.17
2018-12-23T20:10:24.465Z,6.28
2018-12-23T20:13:28.494Z,6.18
2018-12-23T20:16:42.566Z,6.19
2018-12-23T20:19:46.983Z,6.33
2018-12-23T20:22:43.430Z,6.14
2018-12-23T20:25:22.783Z,6.23
2018-12-23T20:28:17.093Z,6.12
2018-12-23T20:32:00.144Z,6.15
2018-12-23T20:34:52.807Z,6.08
2018-12-23T20:37:50.275Z,6.00
2018-12-23T20:40:49.553Z,6.07
2018-12-23T20:44:17.151Z,6.12
2018-12-23T20:47:38.040Z,6.02
2018-12-23T20:50:43.894Z,6.11
2018-12-23T20:53:38.703Z,6.16
2018-12-23T20:56:24.226Z,6.15
2018-12-23T20:59:19.300Z,6.09
2018-12-23T21:02:30.148Z,6.04
2018-12-23T21:06:01.262Z,6.04
2018-12-23T21:09:04.990Z,6.08
2018-12-23T21:12:23.880Z,6.03
2018-12-23T21:15:41.894Z,6.00
2018-12-23T21:19:01.225Z,5.98
2018-12-23T21:21:46.852Z,6.00
2018-12-23T21:24:59.644Z,6.05
2018-12-23T21:28:05.920Z,5.99
2018-12-23T21:31:00.895Z,5.90
2018-12-23T21:34:18.693Z,5.99
2018-12-23T21:37:23.644Z,5.95
2018-12-23T21:40:14.314Z,5.84
2018-12-23T21:43:15.816Z,5.89
2018-12-23T21:46:26.483Z,5.87
2018-12-23T21:49:34.502Z,5.90
2018-12-23T21:52:39.728Z,6.65
2018-12-23T21:55:36.341Z,7.27
2018-12-23T21:58:28.195Z,7.71
2018-12-23T22:01:22.902Z,7.63
2018-12-23T22:04:14.630Z,7.49
2018-12-23T22:07:29.786Z,7.20
2018-12-23T22:10:25.880Z,6.96
2018-12-23T22:13:25.317Z,7.17
2018-12-23T22:15:54.742Z,7.33
2018-12-23T22:18:25.868Z,6.97
2018-12-23T22:20:58.040Z,7.29
2018-12-23T22:23:26.911Z,6.89
2018-12-23T22:25:56.072Z,6.48
2018-12-23T22:28:25.796Z,6.33
2018-12-23T22:30:53.398Z,6.27
2018-12-23T22:33:22.289Z,6.25
2018-12-23T22:35:50.673Z,6.26
2018-12-23T22:38:17.788Z,6.15
2018-12-23T22:41:01.537Z,6.11
2018-12-23T22:43:28.817Z,6.11
2018-12-23T22:45:56.051Z,6.08
2018-12-23T22:48:23.724Z,6.00
2018-12-23T22:50:50.984Z,5.93
2018-12-23T22:53:18.349Z,5.97
2018-12-23T22:55:46.501Z,5.97
2018-12-23T22:58:17.213Z,5.82
2018-12-23T23:00:44.996Z,5.76
2018-12-23T23:03:13.484Z,5.68
2018-12-23T23:05:41.522Z,5.61
2018-12-23T23:08:09.911Z,5.63
2018-12-23T23:10:40.020Z,5.56
2018-12-23T23:13:07.550Z,5.66
2018-12-23T23:15:35.876Z,5.46
2018-12-23T23:18:03.721Z,5.49
2018-12-23T23:20:32.355Z,5.49
2018-12-23T23:23:00.912Z,5.41
2018-12-23T23:25:29.144Z,5.39
2018-12-23T23:27:56.850Z,5.38
2018-12-23T23:30:25.119Z,5.35
2018-12-23T23:32:54.318Z,5.32
2018-12-23T23:35:22.508Z,5.28
2018-12-23T23:37:49.989Z,5.26
2018-12-23T23:40:18.282Z,5.20
2018-12-23T23:42:45.973Z,5.29
2018-12-23T23:45:14.056Z,5.32
2018-12-23T23:47:41.187Z,5.24
2018-12-23T23:50:08.971Z,5.06
2018-12-23T23:52:36.714Z,5.00
2018-12-23T23:55:04.425Z,5.06
2018-12-23T23:57:32.963Z,5.05
